createdAt,value
2023-03-25T00:02:32.513Z,8.47
2023-03-25T00:05:06.229Z,8.61
2023-03-25T00:07:39.105Z,8.69
2023-03-25T00:10:13.172Z,8.61
2023-03-25T00:12:46.286Z,8.54
2023-03-25T00:15:19.938Z,8.56
2023-03-25T00:17:54.651Z,8.60
2023-03-25T00:20:27.996Z,8.74
2023-03-25T00:23:00.744Z,8.56
2023-03-25T00:25:33.838Z,8.58
2023-03-25T00:28:06.767Z,8.67
2023-03-25T00:30:39.966Z,8.62
2023-03-25T00:33:16.478Z,8.70
2023-03-25T00:35:54.655Z,8.64
2023-03-25T00:38:33.406Z,8.68
2023-03-25T00:41:17.670Z,8.64
2023-03-25T00:43:52.207Z,8.59
2023-03-25T00:46:27.903Z,8.53
2023-03-25T00:49:02.911Z,8.53
2023-03-25T00:51:35.764Z,8.47
2023-03-25T00:54:26.113Z,8.50
2023-03-25T00:56:59.229Z,8.43
2023-03-25T00:59:32.137Z,8.35
2023-03-25T01:02:07.294Z,8.38
2023-03-25T01:04:42.548Z,8.39
2023-03-25T01:07:16.070Z,8.44
2023-03-25T01:09:49.916Z,8.36
2023-03-25T01:12:22.935Z,8.40
2023-03-25T01:14:56.693Z,8.36
2023-03-25T01:17:29.488Z,8.37
2023-03-25T01:20:06.008Z,8.38
2023-03-25T01:22:38.910Z,8.27
2023-03-25T01:25:11.830Z,8.28
2023-03-25T01:27:44.731Z,8.34
2023-03-25T01:30:18.698Z,8.35
2023-03-25T01:32:51.538Z,8.38
2023-03-25T01:35:26.084Z,8.30
2023-03-25T01:37:59.126Z,8.40
2023-03-25T01:40:32.064Z,8.43
2023-03-25T01:43:05.028Z,8.33
2023-03-25T01:45:38.245Z,8.28
2023-03-25T01:48:15.323Z,8.36
2023-03-25T01:50:53.194Z,8.26
2023-03-25T01:53:29.485Z,8.32
2023-03-25T01:56:05.655Z,8.30
2023-03-25T01:58:39.309Z,8.22
2023-03-25T02:01:15.096Z,8.17
2023-03-25T02:03:51.496Z,8.07
2023-03-25T02:06:30.648Z,8.12
2023-03-25T02:09:09.114Z,8.13
2023-03-25T02:11:42.505Z,8.11
2023-03-25T02:14:19.327Z,8.11
2023-03-25T02:17:03.636Z,8.10
2023-03-25T02:20:08.152Z,7.96
2023-03-25T02:23:01.919Z,8.01
2023-03-25T02:25:58.649Z,7.89
2023-03-25T02:28:40.009Z,7.99
2023-03-25T02:31:29.614Z,8.01
2023-03-25T02:34:32.641Z,8.05
2023-03-25T02:37:22.831Z,8.20
2023-03-25T02:40:07.005Z,8.06
2023-03-25T02:42:47.858Z,8.05
2023-03-25T02:45:26.458Z,8.12
2023-03-25T02:48:04.523Z,8.16
2023-03-25T02:50:43.656Z,8.10
2023-03-25T02:53:22.312Z,8.13
2023-03-25T02:56:01.649Z,8.15
2023-03-25T02:58:35.550Z,8.22
2023-03-25T03:01:10.425Z,8.24
2023-03-25T03:03:44.108Z,8.31
2023-03-25T03:06:19.750Z,8.40
2023-03-25T03:09:12.579Z,8.37
2023-03-25T03:11:57.702Z,8.34
2023-03-25T03:14:44.102Z,8.48
2023-03-25T03:17:23.252Z,8.36
2023-03-25T03:19:59.110Z,8.45
2023-03-25T03:22:41.086Z,8.38
2023-03-25T03:25:23.826Z,8.36
2023-03-25T03:28:04.748Z,8.40
2023-03-25T03:30:46.647Z,8.45
2023-03-25T03:33:26.777Z,8.48
2023-03-25T03:36:03.145Z,8.48
2023-03-25T03:38:40.498Z,8.56
2023-03-25T03:41:19.352Z,8.43
2023-03-25T03:43:57.646Z,8.38
2023-03-25T03:46:36.339Z,8.38
2023-03-25T03:49:15.498Z,8.38
2023-03-25T03:52:11.646Z,8.34
2023-03-25T03:54:49.741Z,8.39
2023-03-25T03:57:27.804Z,8.32
2023-03-25T04:00:06.915Z,8.26
2023-03-25T04:02:50.332Z,8.20
2023-03-25T04:05:24.372Z,8.18
2023-03-25T04:08:02.493Z,8.13
2023-03-25T04:10:41.232Z,8.13
2023-03-25T04:13:16.894Z,8.11
2023-03-25T04:15:51.293Z,8.08
2023-03-25T04:18:24.566Z,8.13
2023-03-25T04:20:57.488Z,8.14
2023-03-25T04:23:31.382Z,8.02
2023-03-25T04:26:05.206Z,8.02
2023-03-25T04:28:38.044Z,7.96
2023-03-25T04:31:16.654Z,7.92
2023-03-25T04:33:50.986Z,7.92
2023-03-25T04:36:23.978Z,7.91
2023-03-25T04:38:57.288Z,7.95
2023-03-25T04:41:32.159Z,7.92
2023-03-25T04:44:07.789Z,7.96
2023-03-25T04:46:42.342Z,7.89
2023-03-25T04:49:21.143Z,7.85
2023-03-25T04:51:56.966Z,7.93
2023-03-25T04:54:30.049Z,7.95
2023-03-25T04:57:02.941Z,7.97
2023-03-25T04:59:36.027Z,7.91
2023-03-25T05:02:13.908Z,7.89
2023-03-25T05:04:47.902Z,7.83
2023-03-25T05:07:20.910Z,7.82
2023-03-25T05:09:53.728Z,7.72
2023-03-25T05:12:26.574Z,7.86
2023-03-25T05:14:59.347Z,7.84
2023-03-25T05:17:33.684Z,7.78
2023-03-25T05:20:09.102Z,7.81
2023-03-25T05:22:42.524Z,7.84
2023-03-25T05:25:15.928Z,7.82
2023-03-25T05:27:49.403Z,7.81
2023-03-25T05:30:22.722Z,7.75
2023-03-25T05:33:00.121Z,7.81
2023-03-25T05:35:33.249Z,7.82
2023-03-25T05:38:08.225Z,7.76
2023-03-25T05:40:41.868Z,7.76
2023-03-25T05:43:16.357Z,7.81
2023-03-25T05:45:50.332Z,7.78
2023-03-25T05:48:25.032Z,7.86
2023-03-25T05:50:58.481Z,8.02
2023-03-25T05:53:33.104Z,8.05
2023-03-25T05:56:06.912Z,8.17
2023-03-25T05:58:39.854Z,8.16
2023-03-25T06:01:25.856Z,8.21
2023-03-25T06:04:10.174Z,8.33
2023-03-25T06:06:43.499Z,8.27
2023-03-25T06:09:17.860Z,8.28
2023-03-25T06:11:53.526Z,8.24
2023-03-25T06:14:26.762Z,8.24
2023-03-25T06:16:59.521Z,8.20
2023-03-25T06:19:39.041Z,8.05
2023-03-25T06:22:12.729Z,8.02
2023-03-25T06:24:46.647Z,8.12
2023-03-25T06:27:21.224Z,8.17
2023-03-25T06:29:54.091Z,8.28
2023-03-25T06:32:27.276Z,8.49
2023-03-25T06:35:02.509Z,8.40
2023-03-25T06:37:35.765Z,8.44
2023-03-25T06:40:14.191Z,8.57
2023-03-25T06:42:47.165Z,8.41
2023-03-25T06:45:38.232Z,8.40
2023-03-25T06:48:16.762Z,8.53
2023-03-25T06:50:51.027Z,8.54
2023-03-25T06:53:23.994Z,8.68
2023-03-25T06:55:57.847Z,8.81
2023-03-25T06:58:35.335Z,8.94
2023-03-25T07:01:09.038Z,8.86
2023-03-25T07:03:43.128Z,8.89
2023-03-25T07:06:19.011Z,9.00
2023-03-25T07:08:52.627Z,8.88
2023-03-25T07:11:28.059Z,8.89
2023-03-25T07:14:01.412Z,8.76
2023-03-25T07:16:35.330Z,8.82
2023-03-25T07:19:11.088Z,8.87
2023-03-25T07:21:45.318Z,8.90
2023-03-25T07:24:18.239Z,8.96
2023-03-25T07:26:51.175Z,9.04
2023-03-25T07:29:27.466Z,9.12
2023-03-25T07:32:00.371Z,9.05
2023-03-25T07:34:33.247Z,8.98
2023-03-25T07:37:08.267Z,9.14
2023-03-25T07:39:41.165Z,9.04
2023-03-25T07:42:13.996Z,9.23
2023-03-25T07:45:09.521Z,9.21
2023-03-25T07:47:50.503Z,9.47
2023-03-25T07:50:26.109Z,9.50
2023-03-25T07:53:00.538Z,9.47
2023-03-25T07:55:33.502Z,9.61
2023-03-25T07:58:06.431Z,9.49
2023-03-25T08:00:39.781Z,9.67
2023-03-25T08:03:13.260Z,9.56
2023-03-25T08:05:48.086Z,9.46
2023-03-25T08:08:22.798Z,9.66
2023-03-25T08:10:55.688Z,9.70
2023-03-25T08:13:28.918Z,9.89
2023-03-25T08:16:02.559Z,10.01
2023-03-25T08:18:35.577Z,10.22
2023-03-25T08:21:10.031Z,10.13
2023-03-25T08:23:44.638Z,10.17
2023-03-25T08:26:17.829Z,10.37
2023-03-25T08:28:51.267Z,10.46
2023-03-25T08:31:24.438Z,10.44
2023-03-25T08:33:57.674Z,10.72
2023-03-25T08:36:31.183Z,10.73
2023-03-25T08:39:09.785Z,11.04
2023-03-25T08:41:42.762Z,11.00
2023-03-25T08:44:16.257Z,11.04
2023-03-25T08:46:49.094Z,11.15
2023-03-25T08:49:21.869Z,11.68
2023-03-25T08:51:54.963Z,11.74
2023-03-25T08:54:30.494Z,11.27
2023-03-25T08:57:03.517Z,11.44
2023-03-25T08:59:36.418Z,11.67
2023-03-25T09:02:11.341Z,11.76
2023-03-25T09:04:44.773Z,11.45
2023-03-25T09:07:19.988Z,11.22
2023-03-25T09:09:54.503Z,11.62
2023-03-25T09:12:27.623Z,11.55
2023-03-25T09:15:00.764Z,11.89
2023-03-25T09:17:33.600Z,11.66
2023-03-25T09:20:10.634Z,11.49
2023-03-25T09:22:43.832Z,11.75
2023-03-25T09:25:18.055Z,12.23
2023-03-25T09:27:51.259Z,12.44
2023-03-25T09:30:24.353Z,12.21
2023-03-25T09:32:57.386Z,12.59
2023-03-25T09:35:30.435Z,12.30
2023-03-25T09:38:03.230Z,12.52
2023-03-25T09:40:38.480Z,12.16
2023-03-25T09:43:26.892Z,11.87
2023-03-25T09:46:01.108Z,11.74
2023-03-25T09:48:38.961Z,11.93
2023-03-25T09:51:16.276Z,11.81
2023-03-25T09:53:55.754Z,11.62
2023-03-25T09:56:33.278Z,11.85
2023-03-25T09:59:10.240Z,11.77
2023-03-25T10:01:54.123Z,12.44
2023-03-25T10:05:00.992Z,12.80
2023-03-25T10:07:47.383Z,13.36
2023-03-25T10:10:28.338Z,13.48
2023-03-25T10:13:12.149Z,13.41
2023-03-25T10:15:54.459Z,13.54
2023-03-25T10:18:44.631Z,12.66
2023-03-25T10:21:25.342Z,12.43
2023-03-25T10:24:07.644Z,12.73
2023-03-25T10:26:46.541Z,12.51
2023-03-25T10:29:23.481Z,12.60
2023-03-25T10:32:01.536Z,13.22
2023-03-25T10:34:39.099Z,12.68
2023-03-25T10:37:14.122Z,13.05
2023-03-25T10:39:47.487Z,12.72
2023-03-25T10:42:28.284Z,12.86
2023-03-25T10:45:02.651Z,12.12
2023-03-25T10:47:40.191Z,12.20
2023-03-25T10:50:16.741Z,12.52
2023-03-25T10:52:52.069Z,11.77
2023-03-25T10:55:27.556Z,11.89
2023-03-25T10:58:01.855Z,11.58
2023-03-25T11:00:36.138Z,11.74
2023-03-25T11:03:17.262Z,11.76
2023-03-25T11:05:50.321Z,11.96
2023-03-25T11:08:25.342Z,12.22
2023-03-25T11:10:59.308Z,12.30
2023-03-25T11:13:32.172Z,12.03
2023-03-25T11:16:08.033Z,11.88
2023-03-25T11:18:42.150Z,11.72
2023-03-25T11:21:16.796Z,12.61
2023-03-25T11:23:51.520Z,12.95
2023-03-25T11:26:27.764Z,13.28
2023-03-25T11:29:05.454Z,13.50
2023-03-25T11:31:42.433Z,13.42
2023-03-25T11:34:20.166Z,13.04
2023-03-25T11:36:56.080Z,13.44
2023-03-25T11:39:34.909Z,13.82
2023-03-25T11:42:22.718Z,13.12
2023-03-25T11:44:59.550Z,13.00
2023-03-25T11:47:36.409Z,12.95
2023-03-25T11:50:21.505Z,13.68
2023-03-25T11:52:56.764Z,14.16
2023-03-25T11:55:32.412Z,14.03
2023-03-25T11:58:06.024Z,13.73
2023-03-25T12:00:40.787Z,14.09
2023-03-25T12:03:22.699Z,13.29
2023-03-25T12:06:01.013Z,13.69
2023-03-25T12:08:44.517Z,13.23
2023-03-25T12:11:21.888Z,13.27
2023-03-25T12:14:21.737Z,13.07
2023-03-25T12:17:03.132Z,12.86
2023-03-25T12:19:47.918Z,12.39
2023-03-25T12:22:35.901Z,12.53
2023-03-25T12:25:26.338Z,12.52
2023-03-25T12:28:08.775Z,12.29
2023-03-25T12:30:55.820Z,11.92
2023-03-25T12:33:46.211Z,11.58
2023-03-25T12:36:34.860Z,11.22
2023-03-25T12:39:18.738Z,10.41
2023-03-25T12:42:03.086Z,10.09
2023-03-25T12:44:51.076Z,9.21
2023-03-25T12:47:29.308Z,8.76
2023-03-25T12:50:25.499Z,8.63
2023-03-25T12:53:16.944Z,8.54
2023-03-25T12:56:02.005Z,8.88
2023-03-25T12:59:15.440Z,9.34
2023-03-25T13:01:59.576Z,9.90
2023-03-25T13:04:49.015Z,10.80
2023-03-25T13:07:25.413Z,11.33
2023-03-25T13:10:08.151Z,11.71
2023-03-25T13:12:51.023Z,11.91
2023-03-25T13:30:15.497Z,11.42
2023-03-25T13:32:51.681Z,11.94
2023-03-25T13:35:34.863Z,11.86
2023-03-25T13:38:14.042Z,11.97
2023-03-25T13:40:53.059Z,12.25
2023-03-25T13:43:33.549Z,12.39
2023-03-25T13:46:09.915Z,12.47
2023-03-25T13:48:50.760Z,12.73
2023-03-25T13:51:24.714Z,12.63
2023-03-25T13:54:04.782Z,12.30
2023-03-25T13:57:18.298Z,11.78
2023-03-25T14:00:21.804Z,12.19
2023-03-25T14:03:25.411Z,12.63
2023-03-25T14:06:21.448Z,13.16
2023-03-25T14:09:35.007Z,12.74
2023-03-25T14:12:13.002Z,12.72
2023-03-25T14:14:50.353Z,12.67
2023-03-25T14:17:24.124Z,12.81
2023-03-25T14:20:01.047Z,13.08
2023-03-25T14:22:43.773Z,13.26
2023-03-25T14:25:22.665Z,12.95
2023-03-25T14:27:55.738Z,13.07
2023-03-25T14:30:30.458Z,13.46
2023-03-25T14:33:04.154Z,12.80
2023-03-25T14:35:51.881Z,12.79
2023-03-25T14:38:53.071Z,12.60
2023-03-25T14:41:58.192Z,12.68
2023-03-25T14:44:32.952Z,13.14
2023-03-25T14:47:28.543Z,13.43
2023-03-25T14:50:28.492Z,13.63
2023-03-25T14:53:06.362Z,13.30
2023-03-25T14:55:44.993Z,13.47
2023-03-25T14:58:22.505Z,13.30
2023-03-25T15:00:58.095Z,13.58
2023-03-25T15:03:36.643Z,13.80
2023-03-25T15:06:12.402Z,13.58
2023-03-25T15:08:55.876Z,13.95
2023-03-25T15:11:34.531Z,13.90
2023-03-25T15:14:11.653Z,13.41
2023-03-25T15:17:00.838Z,13.22
2023-03-25T15:20:15.893Z,13.18
2023-03-25T15:23:23.261Z,13.15
2023-03-25T15:25:59.067Z,12.96
2023-03-25T15:28:47.161Z,12.89
2023-03-25T15:31:38.115Z,13.18
2023-03-25T15:34:25.306Z,13.59
2023-03-25T15:37:33.060Z,13.35
2023-03-25T15:40:22.509Z,13.50
2023-03-25T15:43:30.687Z,13.51
2023-03-25T15:46:42.900Z,13.77
2023-03-25T15:49:29.031Z,13.82
2023-03-25T15:52:12.011Z,13.46
2023-03-25T15:54:47.807Z,13.72
2023-03-25T15:57:24.355Z,13.68
2023-03-25T16:00:06.581Z,13.44
2023-03-25T16:02:47.153Z,13.26
2023-03-25T16:05:20.710Z,13.51
2023-03-25T16:08:01.035Z,13.68
2023-03-25T16:10:36.303Z,13.41
2023-03-25T16:13:13.004Z,13.39
2023-03-25T16:15:46.596Z,13.28
2023-03-25T16:18:23.504Z,13.09
2023-03-25T16:20:58.430Z,13.04
2023-03-25T16:23:32.424Z,12.91
2023-03-25T16:26:06.727Z,12.93
2023-03-25T16:28:42.800Z,12.53
2023-03-25T16:31:34.881Z,12.62
2023-03-25T16:34:15.233Z,12.66
2023-03-25T16:36:53.144Z,12.46
2023-03-25T16:39:28.000Z,12.66
2023-03-25T16:42:03.322Z,12.61
2023-03-25T16:44:36.474Z,12.55
2023-03-25T16:47:13.351Z,12.60
2023-03-25T16:49:50.555Z,12.40
2023-03-25T16:52:27.304Z,12.50
2023-03-25T16:55:27.652Z,12.28
2023-03-25T16:58:03.146Z,12.36
2023-03-25T17:00:43.232Z,12.12
2023-03-25T17:03:19.997Z,12.01
2023-03-25T17:06:04.761Z,11.86
2023-03-25T17:08:37.735Z,11.76
2023-03-25T17:11:11.081Z,11.67
2023-03-25T17:13:48.602Z,11.61
2023-03-25T17:16:22.733Z,11.57
2023-03-25T17:18:56.875Z,11.50
2023-03-25T17:21:32.923Z,11.39
2023-03-25T17:24:22.290Z,11.38
2023-03-25T17:26:57.204Z,11.25
2023-03-25T17:29:30.028Z,11.25
2023-03-25T17:32:02.808Z,11.21
2023-03-25T17:34:42.835Z,11.23
2023-03-25T17:37:17.527Z,11.27
2023-03-25T17:39:51.489Z,11.06
2023-03-25T17:42:27.232Z,11.02
2023-03-25T17:45:00.434Z,11.15
2023-03-25T17:47:33.783Z,10.94
2023-03-25T17:50:15.854Z,11.04
2023-03-25T17:52:50.664Z,10.92
2023-03-25T17:55:23.856Z,10.91
2023-03-25T17:57:57.921Z,10.87
2023-03-25T18:00:33.175Z,10.90
2023-03-25T18:03:11.604Z,10.90
2023-03-25T18:05:45.695Z,10.76
2023-03-25T18:08:22.164Z,10.63
2023-03-25T18:10:56.684Z,10.70
2023-03-25T18:13:29.686Z,10.67
2023-03-25T18:16:02.487Z,10.72
2023-03-25T18:18:35.428Z,10.58
2023-03-25T18:21:12.666Z,10.59
2023-03-25T18:23:47.997Z,10.62
2023-03-25T18:26:20.955Z,10.43
2023-03-25T18:28:53.964Z,10.39
2023-03-25T18:31:26.769Z,10.35
2023-03-25T18:33:59.652Z,10.39
2023-03-25T18:36:32.939Z,10.22
2023-03-25T18:39:08.360Z,10.33
2023-03-25T18:41:41.401Z,10.24
2023-03-25T18:44:15.040Z,10.27
2023-03-25T18:46:47.899Z,10.29
2023-03-25T18:49:21.115Z,10.37
2023-03-25T18:51:53.979Z,10.31
2023-03-25T18:54:28.111Z,10.46
2023-03-25T18:57:00.905Z,10.53
2023-03-25T18:59:34.019Z,10.54
2023-03-25T19:02:07.514Z,10.55
2023-03-25T19:04:50.495Z,10.60
2023-03-25T19:07:33.042Z,10.65
2023-03-25T19:10:09.345Z,10.69
2023-03-25T19:12:44.583Z,10.82
2023-03-25T19:15:19.235Z,10.84
2023-03-25T19:17:52.587Z,10.87
2023-03-25T19:20:27.432Z,10.69
2023-03-25T19:23:00.588Z,10.44
2023-03-25T19:25:35.188Z,10.26
2023-03-25T19:28:08.408Z,10.04
2023-03-25T19:30:44.025Z,9.77
2023-03-25T19:33:18.104Z,9.61
2023-03-25T19:35:51.676Z,9.38
2023-03-25T19:38:27.374Z,9.29
2023-03-25T19:41:08.295Z,9.04
2023-03-25T19:43:41.887Z,9.07
2023-03-25T19:46:14.971Z,8.83
2023-03-25T19:48:47.869Z,8.72
2023-03-25T19:51:20.651Z,8.81
2023-03-25T19:53:54.785Z,8.57
2023-03-25T19:56:29.300Z,8.50
2023-03-25T19:59:02.615Z,8.40
2023-03-25T20:01:36.399Z,8.32
2023-03-25T20:04:09.255Z,8.39
2023-03-25T20:06:42.299Z,8.44
2023-03-25T20:09:15.133Z,8.34
2023-03-25T20:11:49.419Z,8.28
2023-03-25T20:14:22.174Z,8.36
2023-03-25T20:16:55.096Z,8.24
2023-03-25T20:19:27.981Z,8.39
2023-03-25T20:22:00.901Z,8.37
2023-03-25T20:24:33.794Z,8.37
2023-03-25T20:27:08.183Z,8.46
2023-03-25T20:29:41.248Z,8.39
2023-03-25T20:32:14.312Z,8.40
2023-03-25T20:34:48.023Z,8.45
2023-03-25T20:37:21.188Z,8.36
2023-03-25T20:39:54.328Z,8.33
2023-03-25T20:42:28.592Z,8.23
2023-03-25T20:45:01.346Z,8.21
2023-03-25T20:47:34.801Z,8.08
2023-03-25T20:50:09.460Z,8.21
2023-03-25T20:52:42.595Z,8.22
2023-03-25T20:55:15.580Z,8.16
2023-03-25T20:57:50.020Z,8.18
2023-03-25T21:00:23.168Z,8.31
2023-03-25T21:02:57.688Z,8.28
2023-03-25T21:05:30.633Z,8.43
2023-03-25T21:08:03.529Z,8.39
2023-03-25T21:10:36.563Z,8.46
2023-03-25T21:13:11.068Z,8.53
2023-03-25T21:15:43.920Z,8.52
2023-03-25T21:18:16.656Z,8.53
2023-03-25T21:20:49.827Z,8.48
2023-03-25T21:23:28.272Z,8.48
2023-03-25T21:26:04.399Z,8.47
2023-03-25T21:28:39.850Z,8.55
2023-03-25T21:31:17.075Z,8.26
2023-03-25T21:33:51.618Z,8.39
2023-03-25T21:36:27.319Z,8.47
2023-03-25T21:39:01.848Z,8.43
2023-03-25T21:41:35.072Z,8.21
2023-03-25T21:44:09.400Z,8.19
2023-03-25T21:46:42.249Z,8.19
2023-03-25T21:49:15.760Z,8.26
2023-03-25T21:51:56.498Z,8.16
2023-03-25T21:54:30.849Z,8.27
2023-03-25T21:57:04.768Z,8.20
2023-03-25T21:59:39.021Z,8.24
2023-03-25T22:02:14.516Z,8.31
2023-03-25T22:04:47.369Z,8.18
2023-03-25T22:07:20.384Z,8.26
2023-03-25T22:09:53.238Z,8.09
2023-03-25T22:12:26.317Z,8.06
2023-03-25T22:15:00.698Z,8.19
2023-03-25T22:17:33.602Z,8.07
2023-03-25T22:20:07.698Z,8.11
2023-03-25T22:22:40.462Z,8.04
2023-03-25T22:25:13.257Z,8.08
2023-03-25T22:27:46.132Z,8.01
2023-03-25T22:30:20.684Z,7.98
2023-03-25T22:32:53.484Z,8.06
2023-03-25T22:35:29.140Z,7.93
2023-03-25T22:38:01.916Z,7.96
2023-03-25T22:40:35.628Z,8.09
2023-03-25T22:43:11.025Z,8.17
2023-03-25T22:45:45.401Z,8.21
2023-03-25T22:48:18.389Z,8.20
2023-03-25T22:50:51.355Z,8.22
2023-03-25T22:53:24.843Z,8.26
2023-03-25T22:55:58.120Z,8.34
2023-03-25T22:58:32.221Z,8.25
2023-03-25T23:01:17.561Z,8.37
2023-03-25T23:03:50.776Z,8.28
2023-03-25T23:06:24.318Z,8.20
2023-03-25T23:08:59.171Z,8.18
2023-03-25T23:11:32.355Z,8.05
2023-03-25T23:14:08.670Z,8.01
2023-03-25T23:16:43.318Z,8.12
2023-03-25T23:19:16.464Z,8.05
2023-03-25T23:21:49.276Z,8.17
2023-03-25T23:24:22.087Z,8.10
2023-03-25T23:26:55.275Z,7.90
2023-03-25T23:29:28.137Z,7.91
2023-03-25T23:32:02.815Z,7.93
2023-03-25T23:34:36.047Z,7.82
2023-03-25T23:37:10.242Z,7.91
2023-03-25T23:39:46.419Z,7.82
2023-03-25T23:42:19.346Z,7.77
2023-03-25T23:44:52.967Z,7.81
2023-03-25T23:47:28.392Z,7.86
2023-03-25T23:50:02.212Z,7.85
2023-03-25T23:52:35.081Z,7.80
2023-03-25T23:55:12.319Z,7.82
2023-03-25T23:57:45.131Z,7.72
